Time,TemperatureF,DewpointF,PressureIn,WindDirection,WindDirectionDegrees,WindSpeedMPH,WindSpeedGustMPH,Humidity,HourlyPrecipIn,Conditions,Clouds,dailyrainin,SoftwareType,DateUTC
2013-01-18 00:01:00,32.0,31.5,29.49,West,270,2.2,3.8,98,0.00,,,0.00,pywws,2013-01-18 00:01:00,
2013-01-18 00:07:00,32.0,31.5,29.48,NW,315,3.1,6.0,98,0.00,,,0.00,pywws,2013-01-18 00:07:00,
2013-01-18 00:12:00,32.0,31.5,29.49,West,270,3.8,6.9,98,0.00,,,0.00,pywws,2013-01-18 00:12:00,
2013-01-18 00:18:00,32.0,31.5,29.49,NW,315,3.1,6.0,98,0.00,,,0.00,pywws,2013-01-18 00:18:00,
2013-01-18 00:23:00,32.0,31.2,29.48,NW,315,3.1,6.9,97,0.00,,,0.00,pywws,2013-01-18 00:23:00,
2013-01-18 00:29:00,32.0,31.2,29.48,NW,315,3.8,7.6,97,0.00,,,0.00,pywws,2013-01-18 00:29:00,
2013-01-18 00:34:00,32.0,31.2,29.47,NW,315,3.1,6.9,97,0.00,,,0.00,pywws,2013-01-18 00:34:00,
2013-01-18 00:40:00,32.2,31.2,29.47,NW,315,2.2,5.4,96,0.00,,,0.00,pywws,2013-01-18 00:40:00,
2013-01-18 00:46:00,32.2,31.2,29.47,NW,315,3.8,7.6,96,0.00,,,0.00,pywws,2013-01-18 00:46:00,
2013-01-18 00:51:00,32.2,30.9,29.47,West,270,3.8,6.0,95,0.00,,,0.00,pywws,2013-01-18 00:51:00,
2013-01-18 00:57:00,32.2,30.9,29.47,NW,315,0.7,3.8,95,0.00,,,0.00,pywws,2013-01-18 00:57:00,
2013-01-18 01:02:00,32.2,30.9,29.46,West,270,2.2,5.4,95,0.00,,,0.00,pywws,2013-01-18 01:02:00,
2013-01-18 01:08:00,32.2,30.9,29.46,NW,315,2.2,3.8,95,0.00,,,0.00,pywws,2013-01-18 01:08:00,
2013-01-18 01:14:00,32.2,30.9,29.46,NW,315,4.5,6.9,95,0.00,,,0.00,pywws,2013-01-18 01:14:00,
2013-01-18 01:19:00,32.0,31.0,29.46,West,270,1.6,7.6,96,0.00,,,0.00,pywws,2013-01-18 01:19:00,
2013-01-18 01:25:00,32.0,31.0,29.46,NW,315,4.5,7.6,96,0.00,,,0.00,pywws,2013-01-18 01:25:00,
2013-01-18 01:31:00,32.0,31.0,29.45,NW,315,2.2,4.5,96,0.00,,,0.00,pywws,2013-01-18 01:31:00,
2013-01-18 01:36:00,32.0,31.0,29.46,West,270,1.6,5.4,96,0.00,,,0.00,pywws,2013-01-18 01:36:00,
2013-01-18 01:42:00,32.0,31.0,29.45,NW,315,0.7,3.1,96,0.00,,,0.00,pywws,2013-01-18 01:42:00,
2013-01-18 01:47:00,32.0,31.0,29.45,NW,315,1.6,6.0,96,0.00,,,0.00,pywws,2013-01-18 01:47:00,
2013-01-18 01:53:00,32.0,31.0,29.45,NW,315,1.6,4.5,96,0.00,,,0.00,pywws,2013-01-18 01:53:00,
2013-01-18 01:58:00,32.2,30.9,29.45,WNW,292,3.1,7.6,95,0.00,,,0.00,pywws,2013-01-18 01:58:00,
2013-01-18 02:04:00,32.2,30.9,29.45,SW,225,3.1,5.4,95,0.00,,,0.00,pywws,2013-01-18 02:04:00,
2013-01-18 02:10:00,32.2,30.7,29.44,West,270,3.1,6.9,94,0.00,,,0.00,pywws,2013-01-18 02:10:00,
2013-01-18 02:15:00,32.2,30.7,29.45,NW,315,3.1,6.0,94,0.00,,,0.00,pywws,2013-01-18 02:15:00,
2013-01-18 02:21:00,32.2,30.7,29.44,SW,225,3.8,6.0,94,0.00,,,0.00,pywws,2013-01-18 02:21:00,
2013-01-18 02:26:00,32.2,30.7,29.44,WNW,292,0.7,5.4,94,0.00,,,0.00,pywws,2013-01-18 02:26:00,
2013-01-18 02:32:00,32.2,30.7,29.44,NW,315,3.1,6.0,94,0.00,,,0.00,pywws,2013-01-18 02:32:00,
2013-01-18 02:38:00,32.2,30.7,29.44,West,270,1.6,4.5,94,0.00,,,0.00,pywws,2013-01-18 02:38:00,
2013-01-18 02:43:00,32.2,30.7,29.44,West,270,3.1,7.6,94,0.00,,,0.00,pywws,2013-01-18 02:43:00,
2013-01-18 02:49:00,32.2,30.4,29.44,NW,315,3.8,6.0,93,0.00,,,0.00,pywws,2013-01-18 02:49:00,
2013-01-18 02:54:00,32.2,30.4,29.43,NW,315,3.1,5.4,93,0.00,,,0.00,pywws,2013-01-18 02:54:00,
2013-01-18 02:59:00,32.2,30.4,29.44,NW,315,1.6,3.8,93,0.00,,,0.00,pywws,2013-01-18 02:59:00,
2013-01-18 03:05:00,32.2,30.4,29.43,West,270,3.1,5.4,93,0.00,,,0.00,pywws,2013-01-18 03:05:00,
2013-01-18 03:11:00,32.2,30.4,29.43,West,270,3.1,6.0,93,0.00,,,0.00,pywws,2013-01-18 03:11:00,
2013-01-18 03:16:00,32.0,30.2,29.43,West,270,3.8,9.2,93,0.00,,,0.00,pywws,2013-01-18 03:16:00,
2013-01-18 03:22:00,32.0,30.2,29.42,West,270,3.8,6.9,93,0.00,,,0.00,pywws,2013-01-18 03:22:00,
2013-01-18 03:27:00,32.0,30.2,29.43,West,270,3.8,6.9,93,0.00,,,0.00,pywws,2013-01-18 03:27:00,
2013-01-18 03:33:00,32.0,30.2,29.42,NW,315,3.8,8.3,93,0.00,,,0.00,pywws,2013-01-18 03:33:00,
2013-01-18 03:38:00,32.0,30.2,29.42,West,270,0.7,3.8,93,0.00,,,0.00,pywws,2013-01-18 03:38:00,
2013-01-18 03:44:00,32.0,30.2,29.42,NW,315,3.8,5.4,93,0.00,,,0.00,pywws,2013-01-18 03:44:00,
2013-01-18 03:50:00,31.8,30.0,29.42,NW,315,3.8,9.2,93,0.00,,,0.00,pywws,2013-01-18 03:50:00,
2013-01-18 03:55:00,31.8,30.0,29.41,SW,225,3.1,5.4,93,0.00,,,0.00,pywws,2013-01-18 03:55:00,
2013-01-18 04:01:00,31.8,30.0,29.41,NW,315,3.1,6.0,93,0.00,,,0.00,pywws,2013-01-18 04:01:00,
2013-01-18 04:06:00,31.6,29.9,29.40,NW,315,3.1,5.4,93,0.00,,,0.00,pywws,2013-01-18 04:06:00,
2013-01-18 04:12:00,31.6,29.9,29.40,West,270,5.4,9.2,93,0.00,,,0.00,pywws,2013-01-18 04:12:00,
2013-01-18 04:18:00,31.6,30.1,29.40,West,270,3.8,8.3,94,0.00,,,0.00,pywws,2013-01-18 04:18:00,
2013-01-18 04:23:00,31.5,29.9,29.39,West,270,4.5,8.3,94,0.00,,,0.00,pywws,2013-01-18 04:23:00,
2013-01-18 04:29:00,31.5,29.9,29.39,WNW,292,5.4,10.7,94,0.00,,,0.00,pywws,2013-01-18 04:29:00,
2013-01-18 04:35:00,31.5,30.2,29.38,SW,225,6.0,9.2,95,0.00,,,0.00,pywws,2013-01-18 04:35:00,
2013-01-18 04:40:00,31.3,30.0,29.39,West,270,3.1,6.0,95,0.00,,,0.00,pywws,2013-01-18 04:40:00,
2013-01-18 04:46:00,31.3,30.0,29.38,West,270,5.4,7.6,95,0.00,,,0.00,pywws,2013-01-18 04:46:00,
2013-01-18 04:51:00,31.3,30.0,29.39,West,270,5.4,8.3,95,0.00,,,0.00,pywws,2013-01-18 04:51:00,
2013-01-18 04:57:00,31.3,30.0,29.38,North,0,3.8,8.3,95,0.00,,,0.00,pywws,2013-01-18 04:57:00,
2013-01-18 05:01:00,31.3,30.0,29.38,West,270,3.8,7.6,95,0.00,,,0.00,pywws,2013-01-18 05:01:00,
2013-01-18 05:03:00,31.3,30.0,29.38,NW,315,3.8,8.3,95,0.00,,,0.00,pywws,2013-01-18 05:03:00,
2013-01-18 05:08:00,31.3,30.0,29.38,West,270,3.8,6.0,95,0.00,,,0.00,pywws,2013-01-18 05:08:00,
2013-01-18 05:14:00,31.3,30.0,29.38,SW,225,5.4,13.0,95,0.00,,,0.00,pywws,2013-01-18 05:14:00,
2013-01-18 05:19:00,31.3,30.0,29.38,West,270,3.8,6.9,95,0.00,,,0.00,pywws,2013-01-18 05:19:00,
2013-01-18 05:25:00,31.1,29.8,29.37,NW,315,5.4,9.2,95,0.00,,,0.00,pywws,2013-01-18 05:25:00,
2013-01-18 05:30:00,31.1,29.8,29.37,West,270,5.4,9.2,95,0.00,,,0.00,pywws,2013-01-18 05:30:00,
2013-01-18 05:36:00,31.1,30.1,29.36,West,270,3.8,7.6,96,0.00,,,0.00,pywws,2013-01-18 05:36:00,
2013-01-18 05:42:00,31.1,30.1,29.36,NW,315,4.5,7.6,96,0.00,,,0.00,pywws,2013-01-18 05:42:00,
2013-01-18 05:47:00,30.9,29.9,29.35,NW,315,3.8,6.9,96,0.00,,,0.00,pywws,2013-01-18 05:47:00,
2013-01-18 05:53:00,30.9,29.9,29.36,South,180,3.8,6.0,96,0.00,,,0.00,pywws,2013-01-18 05:53:00,
2013-01-18 05:59:00,30.9,29.7,29.35,West,270,3.1,6.0,95,0.00,,,0.00,pywws,2013-01-18 05:59:00,
2013-01-18 06:04:00,31.1,29.8,29.35,West,270,3.8,5.4,95,0.00,,,0.00,pywws,2013-01-18 06:04:00,
2013-01-18 06:10:00,31.1,29.6,29.34,NW,315,3.8,6.9,94,0.00,,,0.00,pywws,2013-01-18 06:10:00,
2013-01-18 06:15:00,31.3,29.8,29.34,NW,315,6.9,12.1,94,0.00,,,0.00,pywws,2013-01-18 06:15:00,
2013-01-18 06:21:00,31.3,29.8,29.34,NW,315,5.4,10.7,94,0.00,,,0.00,pywws,2013-01-18 06:21:00,
2013-01-18 06:27:00,31.5,29.7,29.34,West,270,6.0,11.4,93,0.00,,,0.00,pywws,2013-01-18 06:27:00,
2013-01-18 06:32:00,31.5,29.7,29.34,West,270,5.4,7.6,93,0.00,,,0.00,pywws,2013-01-18 06:32:00,
2013-01-18 06:38:00,31.5,29.7,29.34,NW,315,5.4,7.6,93,0.00,,,0.00,pywws,2013-01-18 06:38:00,
2013-01-18 06:43:00,31.5,29.4,29.33,North,0,8.3,13.0,92,0.00,,,0.00,pywws,2013-01-18 06:43:00,
2013-01-18 06:49:00,31.5,29.4,29.33,NW,315,3.1,9.8,92,0.00,,,0.00,pywws,2013-01-18 06:49:00,
2013-01-18 06:54:00,31.3,29.2,29.33,NW,315,4.5,8.3,92,0.00,,,0.00,pywws,2013-01-18 06:54:00,
2013-01-18 07:00:00,31.3,29.5,29.32,NW,315,3.8,6.9,93,0.00,,,0.00,pywws,2013-01-18 07:00:00,
2013-01-18 07:06:00,31.1,29.3,29.33,NW,315,3.8,7.6,93,0.00,,,0.00,pywws,2013-01-18 07:06:00,
2013-01-18 07:11:00,30.9,29.4,29.32,West,270,3.8,6.9,94,0.00,,,0.00,pywws,2013-01-18 07:11:00,
2013-01-18 07:17:00,30.7,29.2,29.33,NW,315,5.4,14.5,94,0.00,,,0.00,pywws,2013-01-18 07:17:00,
2013-01-18 07:23:00,30.7,29.5,29.32,West,270,5.4,10.7,95,0.00,,,0.00,pywws,2013-01-18 07:23:00,
2013-01-18 07:28:00,30.6,29.3,29.32,North,0,6.9,11.4,95,0.00,,,0.00,pywws,2013-01-18 07:28:00,
2013-01-18 07:34:00,30.6,29.3,29.32,West,270,5.4,12.1,95,0.00,,,0.00,pywws,2013-01-18 07:34:00,
2013-01-18 07:39:00,30.4,29.1,29.32,West,270,6.0,10.7,95,0.00,,,0.00,pywws,2013-01-18 07:39:00,
2013-01-18 07:44:00,30.4,29.1,29.32,West,270,8.3,13.6,95,0.00,,,0.00,pywws,2013-01-18 07:44:00,
2013-01-18 07:50:00,30.4,28.9,29.31,West,270,5.4,8.3,94,0.00,,,0.00,pywws,2013-01-18 07:50:00,
2013-01-18 07:55:00,30.4,28.9,29.31,NW,315,5.4,10.7,94,0.00,,,0.00,pywws,2013-01-18 07:55:00,
2013-01-18 08:01:00,30.4,28.9,29.31,NW,315,5.4,10.7,94,0.00,,,0.00,pywws,2013-01-18 08:01:00,
2013-01-18 08:07:00,30.4,28.9,29.31,NW,315,4.5,8.3,94,0.00,,,0.00,pywws,2013-01-18 08:07:00,
2013-01-18 08:12:00,30.2,28.4,29.31,SW,225,4.5,7.6,93,0.00,,,0.00,pywws,2013-01-18 08:12:00,
2013-01-18 08:18:00,30.0,28.0,29.31,NW,315,3.8,9.2,92,0.00,,,0.00,pywws,2013-01-18 08:18:00,
2013-01-18 08:23:00,30.0,28.0,29.30,NW,315,5.4,9.2,92,0.00,,,0.00,pywws,2013-01-18 08:23:00,
2013-01-18 08:29:00,29.8,27.5,29.31,SW,225,6.0,9.8,91,0.00,,,0.00,pywws,2013-01-18 08:29:00,
2013-01-18 08:35:00,29.8,27.3,29.31,NW,315,2.2,6.0,90,0.00,,,0.00,pywws,2013-01-18 08:35:00,
2013-01-18 08:40:00,29.7,26.3,29.31,NW,315,7.6,11.4,87,0.00,,,0.00,pywws,2013-01-18 08:40:00,
2013-01-18 08:46:00,29.5,26.1,29.31,NW,315,5.4,13.0,87,0.00,,,0.00,pywws,2013-01-18 08:46:00,
2013-01-18 08:51:00,29.1,26.0,29.30,NW,315,6.0,12.1,88,0.00,,,0.00,pywws,2013-01-18 08:51:00,
2013-01-18 08:57:00,28.6,26.3,29.31,NW,315,5.4,10.7,91,0.00,,,0.00,pywws,2013-01-18 08:57:00,
2013-01-18 09:02:00,28.2,26.7,29.31,SW,225,6.9,13.0,94,0.00,,,0.00,pywws,2013-01-18 09:02:00,
2013-01-18 09:08:00,28.0,27.3,29.31,West,270,4.5,9.8,97,0.00,,,0.00,pywws,2013-01-18 09:08:00,
2013-01-18 09:14:00,27.9,27.6,29.31,West,270,3.8,6.9,99,0.00,,,0.00,pywws,2013-01-18 09:14:00,
2013-01-18 09:19:00,27.9,27.6,29.30,West,270,6.9,11.4,99,0.00,,,0.00,pywws,2013-01-18 09:19:00,
2013-01-18 09:25:00,27.7,27.4,29.30,NW,315,5.4,10.7,99,0.00,,,0.00,pywws,2013-01-18 09:25:00,
2013-01-18 09:31:00,27.7,27.4,29.30,West,270,6.9,13.0,99,0.00,,,0.00,pywws,2013-01-18 09:31:00,
2013-01-18 09:36:00,27.7,27.4,29.30,West,270,5.4,9.2,99,0.00,,,0.00,pywws,2013-01-18 09:36:00,
2013-01-18 09:42:00,27.7,27.4,29.29,NW,315,3.8,6.9,99,0.00,,,0.00,pywws,2013-01-18 09:42:00,
2013-01-18 09:47:00,27.9,27.6,29.29,West,270,3.1,12.1,99,0.00,,,0.00,pywws,2013-01-18 09:47:00,
2013-01-18 09:53:00,27.9,27.6,29.29,West,270,3.1,5.4,99,0.00,,,0.00,pywws,2013-01-18 09:53:00,
2013-01-18 09:59:00,27.9,27.6,29.28,West,270,3.8,9.2,99,0.00,,,0.00,pywws,2013-01-18 09:59:00,
2013-01-18 10:04:00,27.9,27.6,29.28,NW,315,3.8,7.6,99,0.00,,,0.00,pywws,2013-01-18 10:04:00,
2013-01-18 10:10:00,27.9,27.6,29.28,NW,315,3.8,13.0,99,0.00,,,0.00,pywws,2013-01-18 10:10:00,
2013-01-18 10:15:00,27.7,27.4,29.28,SW,225,4.5,6.9,99,0.00,,,0.00,pywws,2013-01-18 10:15:00,
2013-01-18 10:21:00,27.5,27.3,29.28,SW,225,3.1,8.3,99,0.00,,,0.00,pywws,2013-01-18 10:21:00,
2013-01-18 10:27:00,27.5,27.3,29.27,NW,315,3.8,6.9,99,0.00,,,0.00,pywws,2013-01-18 10:27:00,
2013-01-18 10:32:00,27.3,27.1,29.28,West,270,4.5,9.2,99,0.00,,,0.00,pywws,2013-01-18 10:32:00,
2013-01-18 10:38:00,27.3,27.1,29.27,West,270,0.7,3.8,99,0.00,,,0.00,pywws,2013-01-18 10:38:00,
2013-01-18 10:43:00,27.3,27.1,29.27,SE,135,2.2,4.5,99,0.00,,,0.00,pywws,2013-01-18 10:43:00,
2013-01-18 10:49:00,27.1,26.9,29.27,SW,225,3.8,8.3,99,0.00,,,0.00,pywws,2013-01-18 10:49:00,
2013-01-18 10:54:00,27.1,26.9,29.26,West,270,3.1,6.0,99,0.00,,,0.00,pywws,2013-01-18 10:54:00,
2013-01-18 10:59:00,27.1,26.9,29.26,WNW,292,2.2,5.4,99,0.00,,,0.00,pywws,2013-01-18 10:59:00,
2013-01-18 11:05:00,27.0,26.7,29.26,West,270,5.4,11.4,99,0.00,,,0.00,pywws,2013-01-18 11:05:00,
2013-01-18 11:11:00,27.0,26.7,29.26,SW,225,3.8,6.0,99,0.00,,,0.00,pywws,2013-01-18 11:11:00,
2013-01-18 11:16:00,27.0,26.7,29.26,NNW,338,3.1,6.9,99,0.00,,,0.00,pywws,2013-01-18 11:16:00,
2013-01-18 11:22:00,27.0,26.7,29.26,NW,315,4.5,12.1,99,0.00,,,0.00,pywws,2013-01-18 11:22:00,
2013-01-18 11:27:00,26.8,26.5,29.25,West,270,3.8,9.2,99,0.00,,,0.00,pywws,2013-01-18 11:27:00,
2013-01-18 11:33:00,26.8,26.5,29.25,West,270,3.8,8.3,99,0.00,,,0.00,pywws,2013-01-18 11:33:00,
2013-01-18 11:39:00,26.8,26.5,29.25,NW,315,4.5,10.7,99,0.00,,,0.00,pywws,2013-01-18 11:39:00,
2013-01-18 11:44:00,26.8,26.5,29.24,NW,315,2.2,5.4,99,0.00,,,0.00,pywws,2013-01-18 11:44:00,
2013-01-18 11:50:00,26.8,26.5,29.24,North,0,2.2,5.4,99,0.00,,,0.00,pywws,2013-01-18 11:50:00,
2013-01-18 11:56:00,26.8,26.5,29.24,West,270,4.5,7.6,99,0.00,,,0.00,pywws,2013-01-18 11:56:00,
2013-01-18 12:02:00,26.8,26.5,29.24,West,270,4.5,8.3,99,0.00,,,0.00,pywws,2013-01-18 12:02:00,
2013-01-18 12:07:00,26.8,26.5,29.23,NW,315,4.5,9.8,99,0.00,,,0.00,pywws,2013-01-18 12:07:00,
2013-01-18 12:13:00,27.0,26.7,29.23,NW,315,2.2,5.4,99,0.00,,,0.00,pywws,2013-01-18 12:13:00,
2013-01-18 12:19:00,26.8,26.5,29.23,NW,315,3.1,6.9,99,0.00,,,0.00,pywws,2013-01-18 12:19:00,
2013-01-18 12:24:00,26.8,26.5,29.22,West,270,2.2,6.9,99,0.00,,,0.00,pywws,2013-01-18 12:24:00,
2013-01-18 12:30:00,27.0,26.7,29.22,NW,315,3.1,7.6,99,0.00,,,0.00,pywws,2013-01-18 12:30:00,
2013-01-18 12:35:00,26.8,26.5,29.21,West,270,4.5,8.3,99,0.00,,,0.00,pywws,2013-01-18 12:35:00,
2013-01-18 12:41:00,26.8,26.5,29.21,NW,315,6.9,8.3,99,0.00,,,0.00,pywws,2013-01-18 12:41:00,
2013-01-18 12:47:00,26.6,26.4,29.21,West,270,5.4,11.4,99,0.00,,,0.00,pywws,2013-01-18 12:47:00,
2013-01-18 12:52:00,26.6,26.4,29.21,SW,225,3.1,6.9,99,0.00,,,0.00,pywws,2013-01-18 12:52:00,
2013-01-18 12:58:00,26.8,26.5,29.20,NW,315,3.8,6.9,99,0.00,,,0.00,pywws,2013-01-18 12:58:00,
2013-01-18 13:03:00,26.8,26.5,29.20,West,270,3.8,11.4,99,0.00,,,0.00,pywws,2013-01-18 13:03:00,
2013-01-18 13:09:00,27.0,26.7,29.19,SSW,202,3.8,7.6,99,0.00,,,0.00,pywws,2013-01-18 13:09:00,
2013-01-18 13:15:00,26.8,26.5,29.19,SW,225,7.6,13.0,99,0.00,,,0.00,pywws,2013-01-18 13:15:00,
2013-01-18 13:20:00,26.8,26.5,29.18,West,270,3.8,8.3,99,0.00,,,0.00,pywws,2013-01-18 13:20:00,
2013-01-18 13:26:00,26.6,26.4,29.18,NW,315,3.8,8.3,99,0.00,,,0.00,pywws,2013-01-18 13:26:00,
2013-01-18 13:32:00,26.6,26.4,29.18,NW,315,4.5,8.3,99,0.00,,,0.00,pywws,2013-01-18 13:32:00,
2013-01-18 13:38:00,26.6,26.4,29.17,West,270,4.5,9.2,99,0.00,,,0.00,pywws,2013-01-18 13:38:00,
2013-01-18 13:43:00,26.6,26.4,29.17,WNW,292,3.8,8.3,99,0.00,,,0.00,pywws,2013-01-18 13:43:00,
2013-01-18 13:49:00,26.6,26.4,29.17,West,270,4.5,8.3,99,0.00,,,0.00,pywws,2013-01-18 13:49:00,
2013-01-18 13:55:00,26.6,26.4,29.17,NW,315,5.4,9.8,99,0.00,,,0.00,pywws,2013-01-18 13:55:00,
2013-01-18 14:00:00,26.8,26.5,29.17,West,270,3.1,6.0,99,0.00,,,0.00,pywws,2013-01-18 14:00:00,
2013-01-18 14:06:00,26.8,26.5,29.17,West,270,4.5,11.4,99,0.00,,,0.00,pywws,2013-01-18 14:06:00,
2013-01-18 14:11:00,26.8,26.5,29.16,NW,315,4.5,8.3,99,0.00,,,0.00,pywws,2013-01-18 14:11:00,
2013-01-18 14:17:00,26.8,26.5,29.16,West,270,3.1,6.0,99,0.00,,,0.00,pywws,2013-01-18 14:17:00,
2013-01-18 14:23:00,26.8,26.5,29.15,West,270,3.1,6.0,99,0.00,,,0.00,pywws,2013-01-18 14:23:00,
2013-01-18 14:28:00,26.8,26.5,29.15,NW,315,5.4,9.2,99,0.00,,,0.00,pywws,2013-01-18 14:28:00,
2013-01-18 14:34:00,26.8,26.5,29.15,West,270,3.8,7.6,99,0.00,,,0.00,pywws,2013-01-18 14:34:00,
2013-01-18 14:39:00,26.8,26.5,29.15,West,270,3.1,6.0,99,0.00,,,0.00,pywws,2013-01-18 14:39:00,
2013-01-18 14:45:00,26.8,26.5,29.15,West,270,5.4,10.7,99,0.00,,,0.00,pywws,2013-01-18 14:45:00,
2013-01-18 14:51:00,26.8,26.5,29.15,NW,315,4.5,10.7,99,0.00,,,0.00,pywws,2013-01-18 14:51:00,
2013-01-18 14:56:00,26.8,26.5,29.15,SW,225,2.2,3.8,99,0.00,,,0.00,pywws,2013-01-18 14:56:00,
2013-01-18 15:02:00,26.8,26.5,29.14,West,270,5.4,9.2,99,0.00,,,0.00,pywws,2013-01-18 15:02:00,
2013-01-18 15:07:00,26.8,26.5,29.14,NW,315,4.5,7.6,99,0.00,,,0.00,pywws,2013-01-18 15:07:00,
2013-01-18 15:12:00,26.8,26.5,29.14,NNW,338,6.0,9.2,99,0.00,,,0.00,pywws,2013-01-18 15:12:00,
2013-01-18 15:18:00,26.6,26.4,29.13,SW,225,4.5,9.2,99,0.00,,,0.00,pywws,2013-01-18 15:18:00,
2013-01-18 15:23:00,26.8,26.5,29.14,NW,315,3.8,6.9,99,0.00,,,0.00,pywws,2013-01-18 15:23:00,
2013-01-18 15:29:00,26.8,26.5,29.14,SW,225,5.4,9.2,99,0.00,,,0.00,pywws,2013-01-18 15:29:00,
2013-01-18 15:35:00,26.8,26.5,29.13,West,270,4.5,9.8,99,0.00,,,0.00,pywws,2013-01-18 15:35:00,
2013-01-18 15:40:00,26.8,26.5,29.13,West,270,4.5,9.2,99,0.00,,,0.00,pywws,2013-01-18 15:40:00,
2013-01-18 15:46:00,26.6,26.4,29.13,NW,315,4.5,8.3,99,0.00,,,0.00,pywws,2013-01-18 15:46:00,
2013-01-18 15:51:00,26.6,26.4,29.14,West,270,5.4,9.8,99,0.00,,,0.00,pywws,2013-01-18 15:51:00,
2013-01-18 15:57:00,26.4,26.2,29.13,NW,315,3.8,6.0,99,0.00,,,0.00,pywws,2013-01-18 15:57:00,
2013-01-18 16:03:00,26.4,26.2,29.13,SW,225,4.5,6.9,99,0.00,,,0.00,pywws,2013-01-18 16:03:00,
2013-01-18 16:08:00,26.4,26.2,29.13,NW,315,6.0,9.8,99,0.00,,,0.00,pywws,2013-01-18 16:08:00,
2013-01-18 16:14:00,26.4,26.2,29.13,West,270,3.1,6.9,99,0.00,,,0.00,pywws,2013-01-18 16:14:00,
2013-01-18 16:19:00,26.4,26.2,29.13,West,270,5.4,9.2,99,0.00,,,0.00,pywws,2013-01-18 16:19:00,
2013-01-18 16:25:00,26.4,26.2,29.12,WNW,292,3.8,9.2,99,0.00,,,0.00,pywws,2013-01-18 16:25:00,
2013-01-18 16:31:00,26.4,26.2,29.13,NW,315,3.1,6.9,99,0.00,,,0.00,pywws,2013-01-18 16:31:00,
2013-01-18 16:36:00,26.4,26.2,29.13,North,0,3.8,8.3,99,0.00,,,0.00,pywws,2013-01-18 16:36:00,
2013-01-18 16:42:00,26.4,26.2,29.13,West,270,3.8,7.6,99,0.00,,,0.00,pywws,2013-01-18 16:42:00,
2013-01-18 16:47:00,26.4,26.2,29.13,WNW,292,3.1,8.3,99,0.00,,,0.00,pywws,2013-01-18 16:47:00,
2013-01-18 16:52:00,26.4,26.2,29.13,West,270,6.0,10.7,99,0.00,,,0.00,pywws,2013-01-18 16:52:00,
2013-01-18 16:58:00,26.4,26.2,29.13,NW,315,4.5,10.7,99,0.00,,,0.00,pywws,2013-01-18 16:58:00,
2013-01-18 17:03:00,26.6,26.4,29.13,NW,315,3.1,8.3,99,0.00,,,0.00,pywws,2013-01-18 17:03:00,
2013-01-18 17:09:00,26.6,26.4,29.13,NW,315,1.6,6.9,99,0.00,,,0.00,pywws,2013-01-18 17:09:00,
2013-01-18 17:15:00,26.6,26.4,29.13,West,270,3.8,6.9,99,0.00,,,0.00,pywws,2013-01-18 17:15:00,
2013-01-18 17:20:00,26.6,26.4,29.13,WNW,292,3.8,7.6,99,0.00,,,0.00,pywws,2013-01-18 17:20:00,
2013-01-18 17:26:00,26.6,26.4,29.13,West,270,3.8,6.9,99,0.00,,,0.00,pywws,2013-01-18 17:26:00,
2013-01-18 17:31:00,26.6,26.4,29.13,SW,225,1.6,4.5,99,0.00,,,0.00,pywws,2013-01-18 17:31:00,
2013-01-18 17:37:00,26.6,26.4,29.13,SW,225,0.7,3.8,99,0.00,,,0.00,pywws,2013-01-18 17:37:00,
2013-01-18 17:43:00,26.6,26.4,29.14,NW,315,3.8,6.9,99,0.00,,,0.00,pywws,2013-01-18 17:43:00,
2013-01-18 17:48:00,26.6,26.4,29.13,NW,315,2.2,6.9,99,0.00,,,0.00,pywws,2013-01-18 17:48:00,
2013-01-18 17:54:00,26.6,26.4,29.13,NW,315,2.2,5.4,99,0.00,,,0.00,pywws,2013-01-18 17:54:00,
2013-01-18 17:59:00,26.6,26.4,29.12,West,270,2.2,6.0,99,0.00,,,0.00,pywws,2013-01-18 17:59:00,
2013-01-18 18:05:00,26.6,26.4,29.13,West,270,3.8,6.9,99,0.00,,,0.00,pywws,2013-01-18 18:05:00,
2013-01-18 18:11:00,26.6,26.4,29.12,North,0,3.8,6.0,99,0.00,,,0.00,pywws,2013-01-18 18:11:00,
2013-01-18 18:16:00,26.8,26.5,29.12,NW,315,3.8,7.6,99,0.00,,,0.00,pywws,2013-01-18 18:16:00,
2013-01-18 18:22:00,26.8,26.5,29.12,North,0,3.8,7.6,99,0.00,,,0.00,pywws,2013-01-18 18:22:00,
2013-01-18 18:27:00,26.8,26.5,29.13,NW,315,4.5,8.3,99,0.00,,,0.00,pywws,2013-01-18 18:27:00,
2013-01-18 18:32:00,26.8,26.5,29.12,West,270,3.8,8.3,99,0.00,,,0.00,pywws,2013-01-18 18:32:00,
2013-01-18 18:38:00,26.8,26.5,29.13,SW,225,2.2,5.4,99,0.00,,,0.00,pywws,2013-01-18 18:38:00,
2013-01-18 18:43:00,26.8,26.5,29.12,NW,315,4.5,9.2,99,0.00,,,0.00,pywws,2013-01-18 18:43:00,
2013-01-18 18:49:00,26.8,26.5,29.12,NW,315,6.0,9.8,99,0.00,,,0.00,pywws,2013-01-18 18:49:00,
2013-01-18 18:55:00,26.8,26.5,29.12,NNW,338,3.1,6.0,99,0.00,,,0.00,pywws,2013-01-18 18:55:00,
2013-01-18 19:00:00,26.8,26.3,29.11,NW,315,5.4,8.3,98,0.00,,,0.00,pywws,2013-01-18 19:00:00,
2013-01-18 19:06:00,26.8,26.3,29.11,NW,315,5.4,9.2,98,0.00,,,0.00,pywws,2013-01-18 19:06:00,
2013-01-18 19:11:00,26.8,26.3,29.11,West,270,3.8,11.4,98,0.00,,,0.00,pywws,2013-01-18 19:11:00,
2013-01-18 19:17:00,26.8,26.3,29.11,NW,315,4.5,7.6,98,0.00,,,0.00,pywws,2013-01-18 19:17:00,
2013-01-18 19:23:00,26.8,26.3,29.11,NW,315,2.2,5.4,98,0.00,,,0.00,pywws,2013-01-18 19:23:00,
2013-01-18 19:30:00,26.8,26.3,29.12,West,270,3.1,8.3,98,0.00,,,0.00,pywws,2013-01-18 19:30:00,
2013-01-18 19:36:00,26.8,26.0,29.12,NW,315,5.4,10.7,97,0.00,,,0.00,pywws,2013-01-18 19:36:00,
2013-01-18 19:42:00,26.8,26.0,29.11,NW,315,4.5,6.9,97,0.00,,,0.00,pywws,2013-01-18 19:42:00,
2013-01-18 19:47:00,26.8,26.0,29.11,West,270,4.5,8.3,97,0.00,,,0.00,pywws,2013-01-18 19:47:00,
2013-01-18 19:52:00,27.0,26.2,29.12,SW,225,5.4,13.6,97,0.00,,,0.00,pywws,2013-01-18 19:52:00,
2013-01-18 19:58:00,27.0,26.0,29.11,North,0,6.0,10.7,96,0.00,,,0.00,pywws,2013-01-18 19:58:00,
2013-01-18 20:03:00,27.0,26.0,29.12,West,270,3.8,6.9,96,0.00,,,0.00,pywws,2013-01-18 20:03:00,
2013-01-18 20:09:00,27.1,26.2,29.11,West,270,5.4,8.3,96,0.00,,,0.00,pywws,2013-01-18 20:09:00,
2013-01-18 20:15:00,27.1,26.2,29.11,North,0,5.4,9.8,96,0.00,,,0.00,pywws,2013-01-18 20:15:00,
2013-01-18 20:20:00,27.1,26.2,29.11,NW,315,6.0,9.8,96,0.00,,,0.00,pywws,2013-01-18 20:20:00,
2013-01-18 20:26:00,27.3,26.3,29.11,WNW,292,2.2,6.0,96,0.00,,,0.00,pywws,2013-01-18 20:26:00,
2013-01-18 20:31:00,27.3,26.3,29.11,West,270,2.2,6.0,96,0.00,,,0.00,pywws,2013-01-18 20:31:00,
2013-01-18 20:37:00,27.5,26.5,29.11,NW,315,6.0,13.0,96,0.00,,,0.00,pywws,2013-01-18 20:37:00,
2013-01-18 20:43:00,27.5,26.5,29.11,West,270,3.8,9.8,96,0.00,,,0.00,pywws,2013-01-18 20:43:00,
2013-01-18 20:48:00,27.7,26.7,29.11,SW,225,3.1,6.0,96,0.00,,,0.00,pywws,2013-01-18 20:48:00,
2013-01-18 20:54:00,27.7,26.7,29.11,NW,315,2.2,5.4,96,0.00,,,0.00,pywws,2013-01-18 20:54:00,
2013-01-18 20:59:00,27.7,26.7,29.12,SW,225,4.5,8.3,96,0.00,,,0.00,pywws,2013-01-18 20:59:00,
2013-01-18 21:05:00,27.9,26.9,29.12,NW,315,6.0,9.8,96,0.00,,,0.00,pywws,2013-01-18 21:05:00,
2013-01-18 21:11:00,28.0,27.0,29.11,North,0,6.0,9.8,96,0.00,,,0.00,pywws,2013-01-18 21:11:00,
2013-01-18 21:16:00,27.9,26.9,29.12,West,270,4.5,7.6,96,0.00,,,0.00,pywws,2013-01-18 21:16:00,
2013-01-18 21:22:00,28.0,27.0,29.12,NW,315,3.1,6.0,96,0.00,,,0.00,pywws,2013-01-18 21:22:00,
2013-01-18 21:28:00,28.0,27.0,29.11,WNW,292,4.5,10.7,96,0.00,,,0.00,pywws,2013-01-18 21:28:00,
2013-01-18 21:34:00,28.0,27.0,29.11,NW,315,4.5,9.2,96,0.00,,,0.00,pywws,2013-01-18 21:34:00,
2013-01-18 21:39:00,28.0,27.0,29.12,West,270,1.6,4.5,96,0.00,,,0.00,pywws,2013-01-18 21:39:00,
2013-01-18 21:45:00,28.0,27.0,29.11,West,270,3.1,5.4,96,0.00,,,0.00,pywws,2013-01-18 21:45:00,
2013-01-18 21:51:00,28.0,27.0,29.11,North,0,2.2,5.4,96,0.00,,,0.00,pywws,2013-01-18 21:51:00,
2013-01-18 21:56:00,28.0,27.0,29.12,West,270,2.2,6.0,96,0.00,,,0.00,pywws,2013-01-18 21:56:00,
2013-01-18 22:02:00,28.0,27.0,29.11,NE,45,3.1,5.4,96,0.00,,,0.00,pywws,2013-01-18 22:02:00,
2013-01-18 22:07:00,28.0,27.0,29.11,NW,315,3.8,8.3,96,0.00,,,0.00,pywws,2013-01-18 22:07:00,
2013-01-18 22:13:00,28.0,27.0,29.12,West,270,1.6,3.1,96,0.00,,,0.00,pywws,2013-01-18 22:13:00,
2013-01-18 22:19:00,28.0,27.0,29.11,WNW,292,4.5,10.7,96,0.00,,,0.00,pywws,2013-01-18 22:19:00,
2013-01-18 22:24:00,28.0,27.0,29.10,South,180,3.8,6.9,96,0.00,,,0.00,pywws,2013-01-18 22:24:00,
2013-01-18 22:30:00,28.0,27.0,29.11,SW,225,0.7,5.4,96,0.00,,,0.00,pywws,2013-01-18 22:30:00,
2013-01-18 22:35:00,28.2,27.5,29.11,North,0,3.1,6.9,97,0.00,,,0.00,pywws,2013-01-18 22:35:00,
2013-01-18 22:41:00,28.2,27.5,29.11,West,270,3.1,10.7,97,0.00,,,0.00,pywws,2013-01-18 22:41:00,
2013-01-18 22:47:00,28.2,27.5,29.11,NW,315,1.6,5.4,97,0.00,,,0.00,pywws,2013-01-18 22:47:00,
2013-01-18 22:52:00,28.4,27.7,29.11,NW,315,2.2,4.5,97,0.00,,,0.00,pywws,2013-01-18 22:52:00,
2013-01-18 22:58:00,28.4,27.7,29.11,North,0,4.5,7.6,97,0.00,,,0.00,pywws,2013-01-18 22:58:00,
2013-01-18 23:03:00,28.4,27.7,29.11,North,0,2.2,4.5,97,0.00,,,0.00,pywws,2013-01-18 23:03:00,
2013-01-18 23:09:00,28.6,27.8,29.11,West,270,1.6,3.8,97,0.00,,,0.00,pywws,2013-01-18 23:09:00,
2013-01-18 23:15:00,28.6,28.1,29.11,SW,225,3.1,7.6,98,0.00,,,0.00,pywws,2013-01-18 23:15:00,
2013-01-18 23:20:00,28.6,28.1,29.11,NW,315,2.2,4.5,98,0.00,,,0.00,pywws,2013-01-18 23:20:00,
2013-01-18 23:26:00,28.6,28.1,29.11,North,0,2.2,6.0,98,0.00,,,0.00,pywws,2013-01-18 23:26:00,
2013-01-18 23:31:00,28.8,28.3,29.10,NW,315,3.8,9.2,98,0.00,,,0.00,pywws,2013-01-18 23:31:00,
2013-01-18 23:37:00,28.8,28.3,29.11,NW,315,1.6,4.5,98,0.00,,,0.00,pywws,2013-01-18 23:37:00,
2013-01-18 23:42:00,28.8,28.3,29.11,NW,315,2.2,6.0,98,0.00,,,0.00,pywws,2013-01-18 23:42:00,
2013-01-18 23:47:00,28.8,28.3,29.11,SW,225,1.6,5.4,98,0.00,,,0.00,pywws,2013-01-18 23:47:00,
2013-01-18 23:53:00,28.8,28.5,29.11,SW,225,3.8,8.3,99,0.00,,,0.00,pywws,2013-01-18 23:53:00,
2013-01-18 23:59:00,28.8,28.5,29.10,West,270,2.2,3.8,99,0.00,,,0.00,pywws,2013-01-18 23:59:00,